sim
Sign-in with your pilot id or email,
or register
Callsign
Passwort

Schedule Details

Flight Number: DLH94
Departure: Frankfurt Airport (EDDF) at 06:15
Arrival: Munich Airport (EDDM) at 07:10
Route: Lufthansa Passenger Schedule. Enter filed route here before submitting Pirep.

Weather Information
Getting current METAR information for EDDF 181420Z 08009KT 030V120 CAVOK 23/08 Q1022 NOSIG
Getting current METAR information for EDDM 181420Z 09012KT CAVOK 19/09 Q1024 NOSIG

Schedule Frequency

Route Map